createdAt,value
2018-02-20T00:01:21.091Z,72.74
2018-02-20T00:03:48.836Z,71.34
2018-02-20T00:06:16.349Z,70.16
2018-02-20T00:08:43.894Z,71.61
2018-02-20T00:11:11.818Z,71.96
2018-02-20T00:13:39.383Z,70.82
2018-02-20T00:16:06.905Z,71.49
2018-02-20T00:18:34.449Z,70.92
2018-02-20T00:21:01.970Z,72.85
2018-02-20T00:23:29.481Z,71.61
2018-02-20T00:25:57.021Z,72.11
2018-02-20T00:28:24.547Z,71.53
2018-02-20T00:30:52.088Z,72.32
2018-02-20T00:33:19.602Z,72.79
2018-02-20T00:35:47.111Z,71.55
2018-02-20T00:38:14.632Z,71.64
2018-02-20T00:40:42.152Z,72.58
2018-02-20T00:43:09.687Z,71.83
2018-02-20T00:45:37.243Z,72.05
2018-02-20T00:48:04.808Z,72.58
2018-02-20T00:50:32.336Z,71.91
2018-02-20T00:52:59.868Z,72.34
2018-02-20T00:55:27.397Z,72.89
2018-02-20T00:57:54.919Z,72.14
2018-02-20T01:00:22.491Z,72.20
2018-02-20T01:02:50.016Z,71.20
2018-02-20T01:05:17.550Z,71.59
2018-02-20T01:07:45.081Z,69.85
2018-02-20T01:10:12.606Z,72.06
2018-02-20T01:12:40.138Z,71.39
2018-02-20T01:15:07.654Z,72.57
2018-02-20T01:17:35.161Z,71.95
2018-02-20T01:20:02.682Z,72.58
2018-02-20T01:22:30.224Z,71.17
2018-02-20T01:24:57.768Z,70.43
2018-02-20T01:27:25.290Z,72.59
2018-02-20T01:29:52.824Z,72.50
2018-02-20T01:32:20.343Z,72.36
2018-02-20T01:34:47.856Z,72.23
2018-02-20T01:37:15.395Z,72.62
2018-02-20T01:39:42.909Z,71.98
2018-02-20T01:42:10.421Z,71.77
2018-02-20T01:44:37.946Z,70.42
2018-02-20T01:47:05.463Z,69.75
2018-02-20T01:49:33.066Z,71.33
2018-02-20T01:52:00.575Z,71.29
2018-02-20T01:54:28.105Z,72.41
2018-02-20T01:56:55.613Z,71.37
2018-02-20T01:59:23.171Z,71.45
2018-02-20T02:01:50.733Z,71.19
2018-02-20T02:04:18.259Z,71.85
2018-02-20T02:06:45.775Z,72.88
2018-02-20T02:09:13.301Z,71.89
2018-02-20T02:11:40.813Z,72.43
2018-02-20T02:14:08.355Z,71.65
2018-02-20T02:16:35.868Z,72.00
2018-02-20T02:19:03.401Z,71.39
2018-02-20T02:21:30.930Z,71.63
2018-02-20T02:23:58.450Z,72.24
2018-02-20T02:26:26.110Z,72.76
2018-02-20T02:28:53.632Z,70.16
2018-02-20T02:31:21.175Z,72.17
2018-02-20T02:33:48.722Z,71.83
2018-02-20T02:36:16.373Z,71.63
2018-02-20T02:38:43.899Z,70.67
2018-02-20T02:41:11.442Z,71.52
2018-02-20T02:43:39.061Z,72.47
2018-02-20T02:46:06.713Z,71.98
2018-02-20T02:48:34.223Z,72.23
2018-02-20T02:51:01.748Z,72.17
2018-02-20T02:53:29.296Z,72.48
2018-02-20T02:55:56.862Z,70.72
2018-02-20T02:58:24.421Z,72.89
2018-02-20T03:00:52.280Z,72.44
2018-02-20T03:03:19.831Z,71.30
2018-02-20T03:05:47.367Z,72.33
2018-02-20T03:08:14.900Z,72.48
2018-02-20T03:10:42.456Z,71.86
2018-02-20T03:13:10.016Z,72.27
2018-02-20T03:15:37.560Z,73.12
2018-02-20T03:18:05.086Z,72.00
2018-02-20T03:20:32.595Z,72.15
2018-02-20T03:23:00.136Z,72.83
2018-02-20T03:25:27.695Z,71.98
2018-02-20T03:27:55.210Z,71.66
2018-02-20T03:30:22.759Z,69.86
2018-02-20T03:32:50.904Z,72.52
2018-02-20T03:35:18.433Z,71.71
2018-02-20T03:37:45.949Z,72.04
2018-02-20T03:40:13.473Z,72.15
2018-02-20T03:42:41.025Z,71.58
2018-02-20T03:45:08.542Z,71.20
2018-02-20T03:47:36.087Z,72.60
2018-02-20T03:50:03.624Z,71.63
2018-02-20T03:52:31.136Z,70.78
2018-02-20T03:54:58.689Z,72.92
2018-02-20T03:57:26.220Z,72.53
2018-02-20T03:59:53.728Z,71.40
2018-02-20T04:02:21.245Z,72.71
2018-02-20T04:04:48.938Z,72.09
2018-02-20T04:07:16.483Z,72.50
2018-02-20T04:09:43.997Z,72.39
2018-02-20T04:12:11.520Z,73.13
2018-02-20T04:14:39.060Z,72.05
2018-02-20T04:17:06.588Z,72.14
2018-02-20T04:19:34.148Z,72.96
2018-02-20T04:22:01.917Z,71.47
2018-02-20T04:24:29.452Z,72.96
2018-02-20T04:26:56.972Z,71.91
2018-02-20T04:29:24.510Z,71.21
2018-02-20T04:31:52.077Z,72.63
2018-02-20T04:34:19.619Z,71.58
2018-02-20T04:36:47.195Z,71.81
2018-02-20T04:39:14.724Z,72.18
2018-02-20T04:41:42.237Z,71.89
2018-02-20T04:44:09.803Z,72.67
2018-02-20T04:46:37.336Z,72.04
2018-02-20T04:49:04.847Z,72.74
2018-02-20T04:51:32.362Z,72.80
2018-02-20T04:53:59.885Z,71.97
2018-02-20T04:56:27.451Z,71.42
2018-02-20T04:58:54.978Z,72.26
2018-02-20T05:01:22.503Z,72.38
2018-02-20T05:03:50.011Z,71.92
2018-02-20T05:06:17.510Z,71.87
2018-02-20T05:08:45.046Z,72.40
2018-02-20T05:11:12.617Z,71.53
2018-02-20T05:13:40.250Z,71.55
2018-02-20T05:16:07.773Z,72.30
2018-02-20T05:18:35.553Z,72.15
2018-02-20T05:21:03.184Z,72.98
2018-02-20T05:23:30.768Z,72.32
2018-02-20T05:25:58.314Z,72.90
2018-02-20T05:28:26.615Z,73.12
2018-02-20T05:30:54.174Z,72.28
2018-02-20T05:33:21.700Z,72.41
2018-02-20T05:35:49.219Z,85.40
2018-02-20T05:38:18.569Z,80.39
2018-02-20T05:40:47.031Z,81.83
2018-02-20T05:43:14.830Z,70.26
2018-02-20T05:45:42.343Z,68.92
2018-02-20T05:48:09.862Z,66.35
2018-02-20T05:50:40.153Z,67.28
2018-02-20T05:53:07.675Z,65.88
2018-02-20T05:55:35.335Z,65.03
2018-02-20T05:58:02.855Z,64.74
2018-02-20T06:00:30.392Z,66.15
2018-02-20T06:02:57.915Z,65.61
2018-02-20T06:05:25.430Z,65.73
2018-02-20T06:07:52.987Z,64.72
2018-02-20T06:10:20.566Z,65.23
2018-02-20T06:12:48.094Z,65.32
2018-02-20T06:15:15.629Z,65.25
2018-02-20T06:17:43.149Z,66.14
2018-02-20T06:20:10.824Z,65.28
2018-02-20T06:22:38.356Z,64.92
2018-02-20T06:25:05.897Z,65.12
2018-02-20T06:27:33.423Z,65.14
2018-02-20T06:30:01.801Z,65.16
2018-02-20T06:32:29.326Z,65.77
2018-02-20T06:34:56.852Z,65.48
2018-02-20T06:37:24.445Z,64.97
2018-02-20T06:39:51.979Z,64.93
2018-02-20T06:42:19.518Z,65.95
2018-02-20T06:44:47.077Z,65.90
2018-02-20T06:47:14.658Z,65.75
2018-02-20T06:49:42.366Z,65.20
2018-02-20T06:52:09.909Z,66.28
2018-02-20T06:54:37.500Z,64.86
2018-02-20T06:57:05.077Z,64.97
2018-02-20T06:59:32.628Z,65.66
2018-02-20T07:02:00.427Z,64.69
2018-02-20T07:04:28.282Z,63.65
2018-02-20T07:06:55.830Z,64.86
2018-02-20T07:09:23.373Z,64.43
2018-02-20T07:11:50.939Z,65.19
2018-02-20T07:14:18.750Z,64.49
2018-02-20T07:16:46.298Z,66.01
2018-02-20T07:19:13.886Z,65.69
2018-02-20T07:21:41.477Z,65.54
2018-02-20T07:24:09.046Z,66.16
2018-02-20T07:26:36.588Z,65.93
2018-02-20T07:29:04.139Z,65.81
2018-02-20T07:31:31.790Z,63.94
2018-02-20T07:33:59.520Z,63.97
2018-02-20T07:36:27.061Z,63.27
2018-02-20T07:38:54.587Z,63.74
2018-02-20T07:41:22.171Z,64.16
2018-02-20T07:43:49.790Z,63.40
2018-02-20T07:46:17.413Z,63.04
2018-02-20T07:48:44.990Z,62.61
2018-02-20T07:51:12.545Z,62.21
2018-02-20T07:53:40.135Z,61.42
2018-02-20T07:56:07.765Z,61.40
2018-02-20T07:58:35.303Z,61.42
2018-02-20T08:01:02.866Z,62.34
2018-02-20T08:03:30.437Z,61.96
2018-02-20T08:05:58.024Z,60.65
2018-02-20T08:08:25.578Z,59.34
2018-02-20T08:10:53.178Z,60.36
2018-02-20T08:13:20.748Z,59.91
2018-02-20T08:15:48.340Z,60.02
2018-02-20T08:18:15.941Z,59.34
2018-02-20T08:20:43.579Z,56.69
2018-02-20T08:23:11.152Z,56.68
2018-02-20T08:25:38.718Z,56.07
2018-02-20T08:28:06.275Z,56.65
2018-02-20T08:30:33.871Z,57.50
2018-02-20T08:33:01.447Z,56.59
2018-02-20T08:35:29.005Z,56.62
2018-02-20T08:37:56.794Z,57.17
2018-02-20T08:40:24.302Z,58.35
2018-02-20T08:42:51.848Z,57.31
2018-02-20T08:45:19.373Z,57.74
2018-02-20T08:47:46.939Z,57.08
2018-02-20T08:50:14.454Z,56.52
2018-02-20T08:52:42.015Z,55.28
2018-02-20T08:55:09.583Z,55.11
2018-02-20T08:57:37.244Z,56.50
2018-02-20T09:00:07.684Z,55.41
2018-02-20T09:02:35.219Z,56.23
2018-02-20T09:05:03.362Z,54.30
2018-02-20T09:07:31.259Z,56.57
2018-02-20T09:09:58.787Z,57.09
2018-02-20T09:12:26.397Z,56.11
2018-02-20T09:14:53.930Z,55.82
2018-02-20T09:17:21.541Z,56.50
2018-02-20T09:19:49.106Z,56.22
2018-02-20T09:22:16.691Z,54.44
2018-02-20T09:24:44.375Z,54.33
2018-02-20T09:27:11.969Z,53.51
2018-02-20T09:29:39.793Z,54.71
2018-02-20T09:32:07.356Z,54.63
2018-02-20T09:34:34.915Z,53.95
2018-02-20T09:37:02.475Z,54.23
2018-02-20T09:39:30.019Z,55.44
2018-02-20T09:41:57.592Z,56.31
2018-02-20T09:44:25.111Z,56.31
2018-02-20T09:46:52.636Z,56.76
2018-02-20T09:49:20.246Z,55.98
2018-02-20T09:51:47.768Z,55.52
2018-02-20T09:54:15.429Z,53.93
2018-02-20T09:56:42.957Z,54.28
2018-02-20T09:59:10.525Z,54.94
2018-02-20T10:01:38.225Z,53.23
2018-02-20T10:04:05.772Z,53.73
2018-02-20T10:06:33.344Z,52.07
2018-02-20T10:09:01.816Z,54.01
2018-02-20T10:11:29.384Z,54.46
2018-02-20T10:13:56.920Z,54.20
2018-02-20T10:16:24.449Z,53.69
2018-02-20T10:18:51.976Z,55.52
2018-02-20T10:21:19.548Z,53.36
2018-02-20T10:23:47.125Z,52.84
2018-02-20T10:26:14.695Z,54.31
2018-02-20T10:28:42.300Z,54.80
2018-02-20T10:31:10.104Z,55.46
2018-02-20T10:33:37.748Z,53.57
2018-02-20T10:36:05.311Z,52.18
2018-02-20T10:38:32.889Z,52.77
2018-02-20T10:41:01.032Z,53.36
2018-02-20T10:43:28.588Z,53.12
2018-02-20T10:45:56.112Z,54.54
2018-02-20T10:48:23.692Z,54.68
2018-02-20T10:50:51.202Z,53.73
2018-02-20T10:53:18.817Z,53.93
2018-02-20T10:55:46.992Z,52.69
2018-02-20T10:58:14.580Z,53.32
2018-02-20T11:00:42.122Z,52.13
2018-02-20T11:03:09.648Z,51.42
2018-02-20T11:05:37.242Z,51.54
2018-02-20T11:08:04.770Z,51.61
2018-02-20T11:10:32.294Z,49.38
2018-02-20T11:12:59.821Z,49.54
2018-02-20T11:15:27.341Z,50.29
2018-02-20T11:17:54.872Z,52.93
2018-02-20T11:20:22.390Z,51.43
2018-02-20T11:22:49.946Z,51.04
2018-02-20T11:25:17.531Z,51.55
2018-02-20T11:27:45.290Z,51.34
2018-02-20T11:30:13.866Z,53.00
2018-02-20T11:32:41.382Z,52.48
2018-02-20T11:35:08.916Z,52.24
2018-02-20T11:37:36.452Z,54.13
2018-02-20T11:40:04.024Z,55.15
2018-02-20T11:42:31.567Z,55.63
2018-02-20T11:44:59.081Z,54.62
2018-02-20T11:47:26.797Z,52.86
2018-02-20T11:49:54.394Z,51.23
2018-02-20T11:52:21.952Z,52.78
2018-02-20T11:54:49.995Z,51.87
2018-02-20T11:57:17.523Z,51.66
2018-02-20T11:59:45.165Z,51.89
2018-02-20T12:02:12.746Z,51.77
2018-02-20T12:04:40.344Z,52.07
2018-02-20T12:07:07.872Z,52.95
2018-02-20T12:09:35.484Z,51.64
2018-02-20T12:12:03.065Z,53.87
2018-02-20T12:14:30.657Z,52.93
2018-02-20T12:16:58.227Z,53.14
2018-02-20T12:19:25.845Z,53.16
2018-02-20T12:21:53.465Z,52.59
2018-02-20T12:24:21.017Z,54.96
2018-02-20T12:26:48.652Z,53.40
2018-02-20T12:29:16.247Z,53.51
2018-02-20T12:31:43.839Z,54.29
2018-02-20T12:34:11.387Z,55.82
2018-02-20T12:36:38.976Z,56.81
2018-02-20T12:39:06.591Z,55.93
2018-02-20T12:41:35.362Z,54.62
2018-02-20T12:44:02.901Z,54.43
2018-02-20T12:46:31.768Z,54.42
2018-02-20T12:48:59.323Z,55.59
2018-02-20T12:51:26.922Z,53.72
2018-02-20T12:53:54.567Z,53.24
2018-02-20T12:56:22.230Z,53.87
2018-02-20T12:58:49.832Z,52.69
2018-02-20T13:01:18.173Z,54.19
2018-02-20T13:03:45.769Z,52.63
2018-02-20T13:06:13.313Z,51.55
2018-02-20T13:08:41.057Z,52.98
2018-02-20T13:11:08.636Z,53.61
2018-02-20T13:13:36.520Z,53.54
2018-02-20T13:16:04.114Z,54.47
2018-02-20T13:18:32.157Z,52.54
2018-02-20T13:20:59.814Z,55.70
2018-02-20T13:23:27.379Z,54.55
2018-02-20T13:25:55.175Z,55.41
2018-02-20T13:28:22.678Z,56.46
2018-02-20T13:30:50.380Z,56.23
2018-02-20T13:33:17.996Z,55.57
2018-02-20T13:35:45.551Z,57.61
2018-02-20T13:38:13.086Z,56.83
2018-02-20T13:40:40.800Z,57.99
2018-02-20T13:43:09.167Z,57.50
2018-02-20T13:45:36.729Z,57.65
2018-02-20T13:48:04.323Z,57.73
2018-02-20T13:50:31.896Z,56.54
2018-02-20T13:52:59.519Z,58.82
2018-02-20T13:55:27.974Z,57.96
2018-02-20T13:57:55.583Z,57.92
2018-02-20T14:00:23.997Z,60.06
2018-02-20T14:02:51.586Z,58.43
2018-02-20T14:05:19.170Z,58.82
2018-02-20T14:07:46.744Z,60.04
2018-02-20T14:10:15.354Z,60.69
2018-02-20T14:12:42.874Z,62.07
2018-02-20T14:15:10.417Z,62.20
2018-02-20T14:17:38.057Z,61.98
2018-02-20T14:20:05.598Z,62.00
2018-02-20T14:22:33.122Z,61.17
2018-02-20T14:25:00.718Z,62.88
2018-02-20T14:27:28.289Z,61.99
2018-02-20T14:29:56.097Z,60.15
2018-02-20T14:32:23.728Z,60.68
2018-02-20T14:34:51.268Z,61.24
2018-02-20T14:37:19.792Z,61.37
2018-02-20T14:39:47.314Z,62.50
2018-02-20T14:42:14.854Z,63.11
2018-02-20T14:44:42.426Z,63.60
2018-02-20T14:47:09.959Z,60.97
2018-02-20T14:49:37.506Z,63.68
2018-02-20T14:52:05.878Z,64.75
2018-02-20T14:54:33.441Z,63.75
2018-02-20T14:57:00.978Z,64.91
2018-02-20T14:59:28.498Z,63.09
2018-02-20T15:01:56.055Z,64.29
2018-02-20T15:04:24.071Z,64.67
2018-02-20T15:06:51.616Z,65.19
2018-02-20T15:09:19.214Z,64.79
2018-02-20T15:11:46.777Z,63.18
2018-02-20T15:14:14.807Z,65.38
2018-02-20T15:16:42.610Z,65.32
2018-02-20T15:19:10.295Z,67.10
2018-02-20T15:21:37.904Z,65.08
2018-02-20T15:24:05.807Z,67.00
2018-02-20T15:26:33.403Z,65.87
2018-02-20T15:29:00.947Z,66.45
2018-02-20T15:31:28.528Z,67.01
2018-02-20T15:33:56.097Z,67.28
2018-02-20T15:36:23.630Z,68.56
2018-02-20T15:38:51.149Z,68.73
2018-02-20T15:41:18.728Z,69.50
2018-02-20T15:43:46.304Z,67.42
2018-02-20T15:46:13.922Z,69.45
2018-02-20T15:48:41.491Z,76.12
2018-02-20T15:51:09.080Z,72.94
2018-02-20T15:53:36.709Z,71.26
2018-02-20T15:56:04.361Z,71.54
2018-02-20T15:58:32.018Z,71.38
2018-02-20T16:00:59.573Z,73.83
2018-02-20T16:03:27.102Z,73.24
2018-02-20T16:05:54.682Z,73.20
2018-02-20T16:08:22.268Z,72.28
2018-02-20T16:10:49.831Z,72.03
2018-02-20T16:13:17.393Z,73.04
2018-02-20T16:16:01.881Z,73.45
2018-02-20T16:18:29.583Z,72.61
2018-02-20T16:20:57.139Z,73.38
2018-02-20T16:23:24.688Z,73.37
2018-02-20T16:25:52.252Z,71.94
2018-02-20T16:28:19.784Z,71.73
2018-02-20T16:30:47.302Z,73.42
2018-02-20T16:33:14.852Z,72.83
2018-02-20T16:35:42.380Z,72.50
2018-02-20T16:38:10.023Z,74.21
2018-02-20T16:40:37.567Z,74.07
2018-02-20T16:43:05.168Z,72.96
2018-02-20T16:45:32.747Z,74.75
2018-02-20T16:48:01.371Z,73.79
2018-02-20T16:50:28.912Z,74.91
2018-02-20T16:52:56.459Z,74.21
2018-02-20T16:55:23.973Z,74.97
2018-02-20T16:57:51.517Z,75.42
2018-02-20T17:00:19.070Z,73.00
2018-02-20T17:02:46.606Z,74.86
2018-02-20T17:05:14.171Z,76.17
2018-02-20T17:07:41.730Z,75.18
2018-02-20T17:10:09.267Z,75.82
2018-02-20T17:12:37.298Z,74.92
2018-02-20T17:15:04.900Z,73.09
2018-02-20T17:17:32.445Z,73.98
2018-02-20T17:20:00.494Z,74.91
2018-02-20T17:22:28.024Z,74.56
2018-02-20T17:24:55.673Z,74.32
2018-02-20T17:27:23.207Z,74.90
2018-02-20T17:29:50.787Z,74.08
2018-02-20T17:32:18.318Z,74.55
2018-02-20T17:34:45.848Z,75.49
2018-02-20T17:37:13.424Z,75.42
2018-02-20T17:39:40.946Z,75.55
2018-02-20T17:42:08.521Z,75.15
2018-02-20T17:44:36.835Z,74.66
2018-02-20T17:47:04.342Z,75.42
2018-02-20T17:49:31.886Z,75.31
2018-02-20T17:51:59.427Z,77.81
2018-02-20T17:54:26.956Z,77.86
2018-02-20T17:56:54.506Z,76.23
2018-02-20T17:59:22.018Z,76.18
2018-02-20T18:01:49.577Z,75.85
2018-02-20T18:04:17.141Z,74.32
2018-02-20T18:06:44.665Z,76.42
2018-02-20T18:09:12.245Z,75.31
2018-02-20T18:11:39.865Z,75.75
2018-02-20T18:14:07.687Z,76.54
2018-02-20T18:16:35.184Z,74.69
2018-02-20T18:19:02.722Z,74.50
2018-02-20T18:21:30.249Z,75.33
2018-02-20T18:23:57.775Z,76.04
2018-02-20T18:26:25.360Z,75.45
2018-02-20T18:28:52.882Z,76.01
2018-02-20T18:31:20.417Z,75.71
2018-02-20T18:33:47.968Z,75.44
2018-02-20T18:36:15.500Z,75.37
2018-02-20T18:38:43.981Z,76.55
2018-02-20T18:41:12.509Z,75.56
2018-02-20T18:43:40.306Z,76.64
2018-02-20T18:46:07.840Z,75.80
2018-02-20T18:48:35.432Z,75.71
2018-02-20T18:51:03.748Z,74.26
2018-02-20T18:53:31.262Z,74.96
2018-02-20T18:55:58.869Z,75.76
2018-02-20T18:58:26.402Z,74.62
2018-02-20T19:00:54.119Z,76.04
2018-02-20T19:03:21.640Z,75.78
2018-02-20T19:05:49.176Z,76.50
2018-02-20T19:08:16.780Z,76.05
2018-02-20T19:10:44.316Z,76.71
2018-02-20T19:13:12.844Z,75.72
2018-02-20T19:15:40.563Z,74.33
2018-02-20T19:18:09.973Z,75.99
2018-02-20T19:20:37.509Z,76.41
2018-02-20T19:23:05.047Z,76.72
2018-02-20T19:25:32.610Z,76.04
2018-02-20T19:28:00.135Z,76.45
2018-02-20T19:30:27.674Z,76.64
2018-02-20T19:32:55.223Z,76.99
2018-02-20T19:35:22.826Z,76.37
2018-02-20T19:37:50.390Z,75.27
2018-02-20T19:40:18.059Z,74.81
2018-02-20T19:42:45.728Z,76.41
2018-02-20T19:45:13.344Z,75.87
2018-02-20T19:47:41.375Z,76.21
2018-02-20T19:50:10.732Z,76.41
2018-02-20T19:52:38.414Z,75.46
2018-02-20T19:55:06.086Z,75.36
2018-02-20T19:57:33.673Z,75.64
2018-02-20T20:00:01.263Z,76.18
2018-02-20T20:02:28.955Z,75.66
2018-02-20T20:04:56.588Z,75.88
2018-02-20T20:07:24.287Z,76.03
2018-02-20T20:09:51.840Z,76.00
2018-02-20T20:12:19.384Z,74.81
2018-02-20T20:14:46.910Z,76.97
2018-02-20T20:17:14.554Z,75.79
2018-02-20T20:19:42.200Z,76.16
2018-02-20T20:22:11.066Z,76.30
2018-02-20T20:24:38.674Z,76.83
2018-02-20T20:27:06.223Z,76.41
2018-02-20T20:29:33.800Z,75.93
2018-02-20T20:32:01.420Z,74.81
2018-02-20T20:34:29.004Z,76.05
2018-02-20T20:36:56.654Z,75.93
2018-02-20T20:39:24.224Z,76.31
2018-02-20T20:41:51.783Z,76.67
2018-02-20T20:44:19.412Z,76.07
2018-02-20T20:46:47.010Z,75.44
2018-02-20T20:49:14.595Z,75.19
2018-02-20T20:51:42.940Z,76.18
2018-02-20T20:54:10.527Z,75.63
2018-02-20T20:56:38.218Z,76.25
2018-02-20T20:59:05.788Z,75.64
2018-02-20T21:01:33.378Z,76.19
2018-02-20T21:04:00.957Z,75.51
2018-02-20T21:06:28.545Z,76.17
2018-02-20T21:08:56.238Z,75.44
2018-02-20T21:11:23.785Z,75.95
2018-02-20T21:13:51.573Z,76.58
2018-02-20T21:16:19.174Z,76.74
2018-02-20T21:18:46.763Z,77.09
2018-02-20T21:21:14.342Z,76.29
2018-02-20T21:23:42.178Z,75.82
2018-02-20T21:26:09.779Z,76.20
2018-02-20T21:28:37.362Z,76.33
2018-02-20T21:31:05.034Z,76.16
2018-02-20T21:33:32.612Z,76.78
2018-02-20T21:36:00.229Z,75.20
2018-02-20T21:38:28.754Z,75.76
2018-02-20T21:40:57.168Z,75.63
2018-02-20T21:43:25.708Z,75.52
2018-02-20T21:45:53.279Z,75.00
2018-02-20T21:48:20.866Z,76.05
2018-02-20T21:50:48.577Z,75.54
2018-02-20T21:53:16.151Z,76.71
2018-02-20T21:55:43.737Z,74.65
2018-02-20T21:58:11.296Z,75.84
2018-02-20T22:00:38.937Z,76.49
2018-02-20T22:03:06.492Z,75.40
2018-02-20T22:05:34.080Z,75.89
2018-02-20T22:08:01.721Z,76.30
2018-02-20T22:10:29.667Z,76.59
2018-02-20T22:12:57.253Z,76.12
2018-02-20T22:15:24.822Z,76.98
2018-02-20T22:17:52.421Z,75.93
2018-02-20T22:20:20.002Z,75.67
2018-02-20T22:22:47.569Z,75.36
2018-02-20T22:25:15.278Z,75.22
2018-02-20T22:27:42.852Z,77.08
2018-02-20T22:30:10.468Z,77.03
2018-02-20T22:32:38.048Z,77.50
2018-02-20T22:35:05.651Z,76.52
2018-02-20T22:37:33.214Z,75.96
2018-02-20T22:40:00.787Z,76.52
2018-02-20T22:42:28.362Z,76.24
2018-02-20T22:44:55.952Z,76.51
2018-02-20T22:47:23.501Z,76.98
2018-02-20T22:49:51.098Z,76.71
2018-02-20T22:52:18.721Z,76.42
2018-02-20T22:54:46.299Z,77.14
2018-02-20T22:57:13.877Z,76.75
2018-02-20T22:59:41.465Z,77.03
2018-02-20T23:02:09.064Z,77.44
2018-02-20T23:04:36.617Z,77.03
2018-02-20T23:07:04.199Z,76.60
2018-02-20T23:09:31.769Z,76.58
2018-02-20T23:11:59.322Z,76.58
2018-02-20T23:14:26.944Z,76.51
2018-02-20T23:16:54.546Z,76.65
2018-02-20T23:19:22.258Z,77.57
2018-02-20T23:21:49.865Z,76.46
2018-02-20T23:24:17.471Z,77.17
2018-02-20T23:26:45.222Z,76.06
2018-02-20T23:29:12.798Z,75.90
2018-02-20T23:31:40.489Z,76.85
2018-02-20T23:34:08.080Z,75.08
2018-02-20T23:36:35.644Z,76.42
2018-02-20T23:39:03.195Z,75.98
2018-02-20T23:41:30.717Z,76.26
2018-02-20T23:43:58.272Z,76.61
2018-02-20T23:46:25.806Z,76.36
2018-02-20T23:48:53.353Z,75.65
2018-02-20T23:51:26.610Z,75.60
2018-02-20T23:53:54.144Z,76.38
2018-02-20T23:56:21.712Z,75.56
2018-02-20T23:58:49.262Z,76.35
